Observation data for Olton on 10/17/2019      Previous  Date       Current Mesonet Observations  Soil Data  Daily Summary Page  Observations in Plain Language
KONS 170500Z 20009KT 08/00 A3013 RMK A01 T00750004  RH  062%=      5-min Rain = 0
KONS 170505Z 20009KT 08/00 A3013 RMK A01 T00790004  RH  060%=      5-min Rain = 0
KONS 170510Z 21009KT 08/00 A3013 RMK A01 T00810003  RH  058%=      5-min Rain = 0
KONS 170515Z 21009KT 08/00 A3013 RMK A01 T00780003  RH  060%=      5-min Rain = 0
KONS 170520Z 22009KT 07/00 A3013 RMK A01 T00720002  RH  062%=      5-min Rain = 0
KONS 170525Z 22008KT 07/00 A3013 RMK A01 T00730001  RH  061%=      5-min Rain = 0
KONS 170530Z 23008KT 07/00 A3013 RMK A01 T00680003  RH  064%=      5-min Rain = 0
KONS 170535Z 24007KT 07/M00 A3013 RMK A01 T00651001  RH  064%=      5-min Rain = 0
KONS 170540Z 23008KT 06/M00 A3013 RMK A01 T00631004  RH  063%=      5-min Rain = 0
KONS 170545Z 23008KT 06/M00 A3013 RMK A01 T00571003  RH  066%=      5-min Rain = 0
KONS 170550Z 23008KT 05/M00 A3013 RMK A01 T00531001  RH  069%=      5-min Rain = 0
KONS 170555Z 23009KT 05/M00 A3013 RMK A01 T00511001  RH  070%=      5-min Rain = 0
KONS 170600Z 23009KT 05/M00 A3013 RMK A01 T00541001  RH  069%=      5-min Rain = 0
KONS 170605Z 23009KT 05/00 A3013 RMK A01 T00540000  RH  069%=      5-min Rain = 0
KONS 170610Z 23008KT 05/M00 A3013 RMK A01 T00501001  RH  071%=      5-min Rain = 0
KONS 170615Z 23008KT 05/M00 A3013 RMK A01 T00461003  RH  071%=      5-min Rain = 0
KONS 170620Z 23008KT 05/M00 A3013 RMK A01 T00451004  RH  071%=      5-min Rain = 0
KONS 170625Z 23009KT 05/M00 A3013 RMK A01 T00451004  RH  071%=      5-min Rain = 0
KONS 170630Z 24009KT 05/M00 A3013 RMK A01 T00471003  RH  071%=      5-min Rain = 0
KONS 170635Z 23009KT 05/M00 A3012 RMK A01 T00461004  RH  071%=      5-min Rain = 0
KONS 170640Z 24009KT 05/M01 A3012 RMK A01 T00451005  RH  071%=      5-min Rain = 0
KONS 170645Z 23009KT 04/M01 A3012 RMK A01 T00431006  RH  071%=      5-min Rain = 0
KONS 170650Z 24009KT 04/M01 A3012 RMK A01 T00401005  RH  073%=      5-min Rain = 0
KONS 170655Z 24009KT 04/M01 A3012 RMK A01 T00411005  RH  073%=      5-min Rain = 0
KONS 170700Z 24008KT 04/M01 A3012 RMK A01 T00391005  RH  074%=      5-min Rain = 0
KONS 170705Z 24007KT 04/M01 A3012 RMK A01 T00381005  RH  074%=      5-min Rain = 0
KONS 170710Z 25008KT 04/M00 A3012 RMK A01 T00391004  RH  074%=      5-min Rain = 0
KONS 170715Z 25008KT 04/M00 A3012 RMK A01 T00441004  RH  072%=      5-min Rain = 0
KONS 170720Z 25008KT 05/M00 A3012 RMK A01 T00471004  RH  071%=      5-min Rain = 0
KONS 170725Z 25008KT 05/M00 A3012 RMK A01 T00471003  RH  071%=      5-min Rain = 0
KONS 170730Z 24008KT 04/M00 A3012 RMK A01 T00431004  RH  073%=      5-min Rain = 0
KONS 170735Z 24009KT 04/M01 A3012 RMK A01 T00411005  RH  073%=      5-min Rain = 0
KONS 170740Z 24009KT 04/M00 A3012 RMK A01 T00421004  RH  073%=      5-min Rain = 0
KONS 170745Z 24008KT 04/M00 A3012 RMK A01 T00421004  RH  073%=      5-min Rain = 0
KONS 170750Z 24008KT 04/M00 A3011 RMK A01 T00391004  RH  074%=      5-min Rain = 0
KONS 170755Z 23007KT 04/M00 A3011 RMK A01 T00361004  RH  076%=      5-min Rain = 0
KONS 170800Z 23008KT 03/M01 A3011 RMK A01 T00321005  RH  078%=      5-min Rain = 0
KONS 170805Z 23008KT 03/M01 A3011 RMK A01 T00311006  RH  078%=      5-min Rain = 0
KONS 170810Z 23008KT 03/M01 A3011 RMK A01 T00311006  RH  078%=      5-min Rain = 0
KONS 170815Z 23008KT 03/M01 A3011 RMK A01 T00301006  RH  078%=      5-min Rain = 0
KONS 170820Z 23008KT 03/M01 A3011 RMK A01 T00281006  RH  079%=      5-min Rain = 0
KONS 170825Z 23008KT 03/M01 A3011 RMK A01 T00281006  RH  079%=      5-min Rain = 0
KONS 170830Z 23008KT 03/M01 A301 RMK A01 T00281005  RH  079%=      5-min Rain = 0
KONS 170835Z 23008KT 03/M01 A301 RMK A01 T00291006  RH  079%=      5-min Rain = 0
KONS 170840Z 23009KT 03/M01 A301 RMK A01 T00321005  RH  078%=      5-min Rain = 0
KONS 170845Z 23009KT 03/M00 A301 RMK A01 T00341004  RH  077%=      5-min Rain = 0
KONS 170850Z 23009KT 03/M00 A301 RMK A01 T00341004  RH  077%=      5-min Rain = 0
KONS 170855Z 24009KT 04/M00 A3009 RMK A01 T00351004  RH  076%=      5-min Rain = 0
KONS 170900Z 24009KT 04/M01 A3009 RMK A01 T00361005  RH  076%=      5-min Rain = 0
KONS 170905Z 24008KT 04/M01 A3009 RMK A01 T00351005  RH  076%=      5-min Rain = 0
KONS 170910Z 25008KT 03/M01 A3009 RMK A01 T00341005  RH  077%=      5-min Rain = 0
KONS 170915Z 24008KT 03/M01 A3009 RMK A01 T00301007  RH  078%=      5-min Rain = 0
KONS 170920Z 23007KT 02/M01 A3009 RMK A01 T00241007  RH  081%=      5-min Rain = 0
KONS 170925Z 22008KT 03/M01 A3008 RMK A01 T00261005  RH  081%=      5-min Rain = 0
KONS 170930Z 23008KT 03/M00 A3008 RMK A01 T00321001  RH  080%=      5-min Rain = 0
KONS 170935Z 24008KT 03/M00 A3009 RMK A01 T00341002  RH  079%=      5-min Rain = 0
KONS 170940Z 25008KT 04/M00 A3009 RMK A01 T00351002  RH  078%=      5-min Rain = 0
KONS 170945Z 25008KT 04/M00 A3008 RMK A01 T00391001  RH  076%=      5-min Rain = 0
KONS 170950Z 24008KT 04/M00 A3008 RMK A01 T00381001  RH  077%=      5-min Rain = 0
KONS 170955Z 24008KT 04/M00 A3008 RMK A01 T00361001  RH  077%=      5-min Rain = 0
KONS 171000Z 25008KT 04/M00 A3008 RMK A01 T00371001  RH  077%=      5-min Rain = 0
KONS 171005Z 24008KT 04/00 A3008 RMK A01 T00380000  RH  077%=      5-min Rain = 0
KONS 171010Z 24007KT 04/00 A3007 RMK A01 T003700-0  RH  077%=      5-min Rain = 0
KONS 171015Z 23007KT 03/M00 A3007 RMK A01 T00311004  RH  079%=      5-min Rain = 0
KONS 171020Z 23007KT 03/M00 A3007 RMK A01 T00281004  RH  080%=      5-min Rain = 0
KONS 171025Z 22008KT 03/M01 A3007 RMK A01 T00261005  RH  081%=      5-min Rain = 0
KONS 171030Z 22008KT 03/00 A3007 RMK A01 T003100-0  RH  081%=      5-min Rain = 0
KONS 171035Z 23008KT 04/00 A3007 RMK A01 T00350002  RH  080%=      5-min Rain = 0
KONS 171040Z 23008KT 03/00 A3007 RMK A01 T00330001  RH  080%=      5-min Rain = 0
KONS 171045Z 25008KT 03/M00 A3007 RMK A01 T00301001  RH  081%=      5-min Rain = 0
KONS 171050Z 26008KT 04/00 A3007 RMK A01 T00370002  RH  079%=      5-min Rain = 0
KONS 171055Z 26007KT 04/00 A3007 RMK A01 T00400003  RH  078%=      5-min Rain = 0
KONS 171100Z 27007KT 04/00 A3007 RMK A01 T00380003  RH  078%=      5-min Rain = 0
KONS 171105Z 27008KT 03/00 A3007 RMK A01 T00330001  RH  081%=      5-min Rain = 0
KONS 171110Z 26008KT 04/01 A3007 RMK A01 T00370005  RH  081%=      5-min Rain = 0
KONS 171115Z 25008KT 04/00 A3007 RMK A01 T00390003  RH  078%=      5-min Rain = 0
KONS 171120Z 25008KT 03/00 A3006 RMK A01 T00300000  RH  082%=      5-min Rain = 0
KONS 171125Z 24007KT 03/00 A3006 RMK A01 T00290001  RH  083%=      5-min Rain = 0
KONS 171130Z 24007KT 02/M00 A3006 RMK A01 T00201004  RH  085%=      5-min Rain = 0
KONS 171135Z 23007KT 02/M00 A3006 RMK A01 T00181003  RH  087%=      5-min Rain = 0
KONS 171140Z 22006KT 02/M00 A3006 RMK A01 T00171003  RH  088%=      5-min Rain = 0
KONS 171145Z 22006KT 02/M00 A3006 RMK A01 T00181001  RH  088%=      5-min Rain = 0
KONS 171150Z 22006KT 02/M00 A3006 RMK A01 T00211001  RH  087%=      5-min Rain = 0
KONS 171155Z 23006KT 02/00 A3006 RMK A01 T002300-0  RH  086%=      5-min Rain = 0
KONS 171200Z 24007KT 03/00 A3006 RMK A01 T002500-0  RH  084%=      5-min Rain = 0
KONS 171205Z 23007KT 03/00 A3006 RMK A01 T00260000  RH  084%=      5-min Rain = 0
KONS 171210Z 22007KT 02/M00 A3006 RMK A01 T00231003  RH  084%=      5-min Rain = 0
KONS 171215Z 22006KT 02/M01 A3006 RMK A01 T00151007  RH  086%=      5-min Rain = 0
KONS 171220Z 22007KT 01/M01 A3006 RMK A01 T00141006  RH  088%=      5-min Rain = 0
KONS 171225Z 21007KT 01/M00 A3006 RMK A01 T00141004  RH  088%=      5-min Rain = 0
KONS 171230Z 21008KT 02/M00 A3006 RMK A01 T00151004  RH  088%=      5-min Rain = 0
KONS 171235Z 22008KT 02/M00 A3006 RMK A01 T00171003  RH  087%=      5-min Rain = 0
KONS 171240Z 22008KT 02/M00 A3006 RMK A01 T00191002  RH  087%=      5-min Rain = 0
KONS 171245Z 21008KT 02/M00 A3005 RMK A01 T00201001  RH  087%=      5-min Rain = 0
KONS 171250Z 21008KT 02/00 A3006 RMK A01 T00230001  RH  086%=      5-min Rain = 0
KONS 171255Z 21008KT 03/00 A3006 RMK A01 T00250003  RH  086%=      5-min Rain = 0
KONS 171300Z 22007KT 03/00 A3006 RMK A01 T00270004  RH  086%=      5-min Rain = 0
KONS 171305Z 22008KT 03/01 A3006 RMK A01 T00290006  RH  086%=      5-min Rain = 0
KONS 171310Z 23007KT 03/01 A3006 RMK A01 T00280005  RH  086%=      5-min Rain = 0
KONS 171315Z 25007KT 03/01 A3007 RMK A01 T00280006  RH  087%=      5-min Rain = 0
KONS 171320Z 26008KT 03/01 A3007 RMK A01 T00320008  RH  085%=      5-min Rain = 0
KONS 171325Z 26009KT 04/01 A3007 RMK A01 T00400012  RH  083%=      5-min Rain = 0
KONS 171330Z 24008KT 04/01 A3007 RMK A01 T00410010  RH  082%=      5-min Rain = 0
KONS 171335Z 24008KT 04/01 A3007 RMK A01 T00380013  RH  085%=      5-min Rain = 0
KONS 171340Z 24008KT 05/02 A3007 RMK A01 T00460019  RH  083%=      5-min Rain = 0
KONS 171345Z 25008KT 05/02 A3007 RMK A01 T00540021  RH  080%=      5-min Rain = 0
KONS 171350Z 26009KT 06/02 A3007 RMK A01 T00570020  RH  078%=      5-min Rain = 0
KONS 171355Z 25008KT 06/02 A3007 RMK A01 T00620023  RH  077%=      5-min Rain = 0
KONS 171400Z 26008KT 07/03 A3007 RMK A01 T00650026  RH  077%=      5-min Rain = 0
KONS 171405Z 27009KT 07/03 A3008 RMK A01 T00730030  RH  075%=      5-min Rain = 0
KONS 171410Z 26007KT 08/03 A3008 RMK A01 T00810034  RH  073%=      5-min Rain = 0
KONS 171415Z 26008KT 09/04 A3007 RMK A01 T00880038  RH  072%=      5-min Rain = 0
KONS 171420Z 26008KT 09/04 A3007 RMK A01 T00930040  RH  071%=      5-min Rain = 0
KONS 171425Z 26008KT 10/04 A3007 RMK A01 T00980044  RH  070%=      5-min Rain = 0
KONS 171430Z 26010KT 11/05 A3007 RMK A01 T01060046  RH  067%=      5-min Rain = 0
KONS 171435Z 25010KT 11/05 A3007 RMK A01 T01130048  RH  065%=      5-min Rain = 0
KONS 171440Z 25009KT 12/05 A3007 RMK A01 T01190052  RH  065%=      5-min Rain = 0
KONS 171445Z 25010KT 13/05 A3007 RMK A01 T01250051  RH  061%=      5-min Rain = 0
KONS 171450Z 24010KT 13/05 A3007 RMK A01 T01300053  RH  060%=      5-min Rain = 0
KONS 171455Z 25011KT 14/05 A3007 RMK A01 T01350052  RH  058%=      5-min Rain = 0
KONS 171500Z 25011KT 14/05 A3008 RMK A01 T01390052  RH  056%=      5-min Rain = 0
KONS 171505Z 24011KT 14/05 A3007 RMK A01 T01400050  RH  056%=      5-min Rain = 0
KONS 171510Z 24011KT 15/05 A3007 RMK A01 T01450049  RH  053%=      5-min Rain = 0
KONS 171515Z 23011KT 15/05 A3008 RMK A01 T01500050  RH  052%=      5-min Rain = 0
KONS 171520Z 23011KT 15/05 A3007 RMK A01 T01530048  RH  050%=      5-min Rain = 0
KONS 171525Z 22012KT 16/05 A3007 RMK A01 T01580046  RH  048%=      5-min Rain = 0
KONS 171530Z 21014KT 16/04 A3007 RMK A01 T01600036  RH  044%=      5-min Rain = 0
KONS 171535Z 22010KT 17/05 A3007 RMK A01 T01650047  RH  046%=      5-min Rain = 0
KONS 171540Z 22011KT 17/04 A3006 RMK A01 T01670042  RH  044%=      5-min Rain = 0
KONS 171545Z 21012KT 17/04 A3006 RMK A01 T01690039  RH  042%=      5-min Rain = 0
KONS 171550Z 21012KT 17/04 A3006 RMK A01 T01720039  RH  042%=      5-min Rain = 0
KONS 171555Z 22013G18KT 17/04 A3006 RMK A01 T01740041  RH  042%=      5-min Rain = 0
KONS 171600Z 22014KT 18/04 A3006 RMK A01 T01750040  RH  041%=      5-min Rain = 0
KONS 171605Z 23013KT 18/04 A3006 RMK A01 T01760041  RH  041%=      5-min Rain = 0
KONS 171610Z 23014KT 18/04 A3005 RMK A01 T01760040  RH  041%=      5-min Rain = 0
KONS 171615Z 22012KT 18/04 A3005 RMK A01 T01780043  RH  041%=      5-min Rain = 0
KONS 171620Z 22011KT 18/05 A3006 RMK A01 T01810047  RH  042%=      5-min Rain = 0
KONS 171625Z 23012KT 18/04 A3005 RMK A01 T01820044  RH  041%=      5-min Rain = 0
KONS 171630Z 23010KT 19/05 A3005 RMK A01 T01850048  RH  041%=      5-min Rain = 0
KONS 171635Z 23012KT 19/05 A3005 RMK A01 T01890045  RH  039%=      5-min Rain = 0
KONS 171640Z 24012KT 19/04 A3005 RMK A01 T01890042  RH  038%=      5-min Rain = 0
KONS 171645Z 23010KT 20/05 A3005 RMK A01 T01950051  RH  039%=      5-min Rain = 0
KONS 171650Z 22009KT 20/05 A3004 RMK A01 T01970051  RH  039%=      5-min Rain = 0
KONS 171655Z 23010G15KT 20/05 A3004 RMK A01 T02010051  RH  038%=      5-min Rain = 0
KONS 171700Z 23011KT 20/04 A3004 RMK A01 T02000043  RH  036%=      5-min Rain = 0
KONS 171705Z 23010KT 20/05 A3004 RMK A01 T02020046  RH  036%=      5-min Rain = 0
KONS 171710Z 21011KT 21/04 A3003 RMK A01 T02050044  RH  035%=      5-min Rain = 0
KONS 171715Z 22009KT 21/05 A3003 RMK A01 T02070048  RH  036%=      5-min Rain = 0
KONS 171720Z 22009KT 21/05 A3003 RMK A01 T02100046  RH  035%=      5-min Rain = 0
KONS 171725Z 21010KT 21/05 A3003 RMK A01 T02100045  RH  034%=      5-min Rain = 0
KONS 171730Z 20009KT 21/04 A3002 RMK A01 T02110041  RH  033%=      5-min Rain = 0
KONS 171735Z 21009KT 21/04 A3002 RMK A01 T02120042  RH  033%=      5-min Rain = 0
KONS 171740Z 20009KT 22/04 A3002 RMK A01 T02160042  RH  032%=      5-min Rain = 0
KONS 171745Z 20011KT 22/04 A3002 RMK A01 T02160042  RH  032%=      5-min Rain = 0
KONS 171750Z 20009G14KT 22/04 A3002 RMK A01 T02180038  RH  031%=      5-min Rain = 0
KONS 171755Z 21009KT 22/04 A3002 RMK A01 T02220041  RH  031%=      5-min Rain = 0
KONS 171800Z 21009KT 22/04 A3001 RMK A01 T02240041  RH  031%=      5-min Rain = 0
KONS 171805Z 20011KT 23/04 A3001 RMK A01 T02260040  RH  030%=      5-min Rain = 0
KONS 171810Z 20009KT 22/04 A3001 RMK A01 T02240042  RH  031%=      5-min Rain = 0
KONS 171815Z 21010KT 23/03 A30 RMK A01 T02270033  RH  028%=      5-min Rain = 0
KONS 171820Z 21009G14KT 23/04 A30 RMK A01 T02280037  RH  029%=      5-min Rain = 0
KONS 171825Z 22009G14KT 23/03 A30 RMK A01 T02310034  RH  028%=      5-min Rain = 0
KONS 171830Z 21008G13KT 23/03 A30 RMK A01 T02320033  RH  028%=      5-min Rain = 0
KONS 171835Z 21011KT 23/03 A2999 RMK A01 T02340029  RH  026%=      5-min Rain = 0
KONS 171840Z 22010G15KT 23/03 A2999 RMK A01 T02340025  RH  026%=      5-min Rain = 0
KONS 171845Z 21009KT 24/03 A2999 RMK A01 T02380029  RH  026%=      5-min Rain = 0
KONS 171850Z 21011G16KT 24/03 A2998 RMK A01 T02390031  RH  026%=      5-min Rain = 0
KONS 171855Z 21012G17KT 24/03 A2998 RMK A01 T02410025  RH  025%=      5-min Rain = 0
KONS 171900Z 22012G17KT 24/02 A2998 RMK A01 T02410023  RH  024%=      5-min Rain = 0
KONS 171905Z 20012G17KT 24/02 A2997 RMK A01 T02420024  RH  024%=      5-min Rain = 0
KONS 171910Z 21012G17KT 24/02 A2997 RMK A01 T02440022  RH  024%=      5-min Rain = 0
KONS 171915Z 21012G18KT 24/02 A2996 RMK A01 T02440020  RH  023%=      5-min Rain = 0
KONS 171920Z 20010KT 25/02 A2996 RMK A01 T02450019  RH  023%=      5-min Rain = 0
KONS 171925Z 19009KT 25/03 A2996 RMK A01 T02480030  RH  025%=      5-min Rain = 0
KONS 171930Z 20008G13KT 25/04 A2995 RMK A01 T02500037  RH  026%=      5-min Rain = 0
KONS 171935Z 21011KT 25/03 A2995 RMK A01 T02500027  RH  024%=      5-min Rain = 0
KONS 171940Z 20011KT 25/03 A2994 RMK A01 T02510027  RH  024%=      5-min Rain = 0
KONS 171945Z 19011G18KT 25/03 A2994 RMK A01 T02520030  RH  024%=      5-min Rain = 0
KONS 171950Z 19012G18KT 25/03 A2994 RMK A01 T02510026  RH  023%=      5-min Rain = 0
KONS 171955Z 20012G18KT 25/03 A2993 RMK A01 T02530028  RH  024%=      5-min Rain = 0
KONS 172000Z 20012G18KT 25/02 A2993 RMK A01 T02540024  RH  023%=      5-min Rain = 0
KONS 172005Z 19011G17KT 26/03 A2993 RMK A01 T02560033  RH  024%=      5-min Rain = 0
KONS 172010Z 19014G20KT 26/03 A2992 RMK A01 T02550025  RH  023%=      5-min Rain = 0
KONS 172015Z 20010G15KT 26/02 A2992 RMK A01 T02550017  RH  022%=      5-min Rain = 0
KONS 172020Z 20013KT 26/02 A2992 RMK A01 T02570020  RH  022%=      5-min Rain = 0
KONS 172025Z 19013KT 26/02 A2992 RMK A01 T02570020  RH  022%=      5-min Rain = 0
KONS 172030Z 18012KT 26/02 A2991 RMK A01 T02580022  RH  022%=      5-min Rain = 0
KONS 172035Z 18013G18KT 26/02 A2991 RMK A01 T02580017  RH  021%=      5-min Rain = 0
KONS 172040Z 20014G20KT 26/02 A2991 RMK A01 T02570019  RH  022%=      5-min Rain = 0
KONS 172045Z 19011G18KT 26/03 A2991 RMK A01 T02600027  RH  022%=      5-min Rain = 0
KONS 172050Z 20012G17KT 26/02 A2991 RMK A01 T02610016  RH  021%=      5-min Rain = 0
KONS 172055Z 18015G20KT 26/02 A299 RMK A01 T02580019  RH  021%=      5-min Rain = 0
KONS 172100Z 19013KT 26/02 A299 RMK A01 T02590019  RH  021%=      5-min Rain = 0
KONS 172105Z 18014G19KT 26/01 A299 RMK A01 T02600013  RH  020%=      5-min Rain = 0
KONS 172110Z 19014G19KT 26/02 A299 RMK A01 T02580022  RH  022%=      5-min Rain = 0
KONS 172115Z 19016G22KT 26/01 A299 RMK A01 T02550007  RH  020%=      5-min Rain = 0
KONS 172120Z 19012KT 26/02 A299 RMK A01 T02560019  RH  022%=      5-min Rain = 0
KONS 172125Z 18014G19KT 25/02 A2989 RMK A01 T02540021  RH  022%=      5-min Rain = 0
KONS 172130Z 20014G21KT 25/02 A2989 RMK A01 T02510016  RH  022%=      5-min Rain = 0
KONS 172135Z 19012G19KT 26/02 A2989 RMK A01 T02560020  RH  022%=      5-min Rain = 0
KONS 172140Z 19016KT 26/02 A2989 RMK A01 T02590018  RH  021%=      5-min Rain = 0
KONS 172145Z 19014G19KT 26/02 A2989 RMK A01 T02580015  RH  021%=      5-min Rain = 0
KONS 172150Z 19014KT 26/01 A2989 RMK A01 T02590014  RH  021%=      5-min Rain = 0
KONS 172155Z 20013G21KT 26/02 A2989 RMK A01 T02580018  RH  021%=      5-min Rain = 0
KONS 172200Z 20015KT 26/01 A2989 RMK A01 T02570011  RH  020%=      5-min Rain = 0
KONS 172205Z 19013G18KT 26/01 A2988 RMK A01 T02560012  RH  021%=      5-min Rain = 0
KONS 172210Z 20015G20KT 26/01 A2988 RMK A01 T02550010  RH  020%=      5-min Rain = 0
KONS 172215Z 20014KT 26/01 A2988 RMK A01 T02550012  RH  021%=      5-min Rain = 0
KONS 172220Z 20013G18KT 25/01 A2988 RMK A01 T02540009  RH  020%=      5-min Rain = 0
KONS 172225Z 18012G17KT 25/02 A2988 RMK A01 T02520023  RH  023%=      5-min Rain = 0
KONS 172230Z 19013G19KT 25/03 A2988 RMK A01 T02490028  RH  024%=      5-min Rain = 0
KONS 172235Z 19013G19KT 25/03 A2988 RMK A01 T02480025  RH  024%=      5-min Rain = 0
KONS 172240Z 19014KT 25/02 A2988 RMK A01 T02480022  RH  023%=      5-min Rain = 0
KONS 172245Z 19015KT 25/02 A2987 RMK A01 T02470019  RH  023%=      5-min Rain = 0
KONS 172250Z 19013KT 25/02 A2987 RMK A01 T02460020  RH  023%=      5-min Rain = 0
KONS 172255Z 18012G17KT 24/03 A2988 RMK A01 T02440026  RH  024%=      5-min Rain = 0
KONS 172300Z 19013G18KT 24/02 A2987 RMK A01 T02420023  RH  024%=      5-min Rain = 0
KONS 172305Z 19011KT 24/03 A2987 RMK A01 T02360031  RH  026%=      5-min Rain = 0
KONS 172310Z 19013KT 24/02 A2987 RMK A01 T02360022  RH  025%=      5-min Rain = 0
KONS 172315Z 19013KT 24/02 A2987 RMK A01 T02350021  RH  025%=      5-min Rain = 0
KONS 172320Z 18012KT 23/02 A2987 RMK A01 T02300023  RH  026%=      5-min Rain = 0
KONS 172325Z 18012KT 22/03 A2987 RMK A01 T02210026  RH  028%=      5-min Rain = 0
KONS 172330Z 18012KT 22/03 A2987 RMK A01 T02190025  RH  028%=      5-min Rain = 0
KONS 172335Z 18011KT 22/03 A2987 RMK A01 T02150030  RH  030%=      5-min Rain = 0
KONS 172340Z 18011KT 21/03 A2987 RMK A01 T02120030  RH  030%=      5-min Rain = 0
KONS 172345Z 18010KT 20/04 A2986 RMK A01 T02040036  RH  033%=      5-min Rain = 0
KONS 172350Z 18010KT 20/04 A2986 RMK A01 T01980037  RH  035%=      5-min Rain = 0
KONS 172355Z 18010KT 20/04 A2986 RMK A01 T01970035  RH  035%=      5-min Rain = 0
KONS 180000Z 18010KT 19/03 A2986 RMK A01 T01940033  RH  035%=      5-min Rain = 0
KONS 180005Z 17009KT 19/03 A2986 RMK A01 T01900032  RH  035%=      5-min Rain = 0
KONS 180010Z 17009KT 19/03 A2986 RMK A01 T01850030  RH  036%=      5-min Rain = 0
KONS 180015Z 17009KT 18/02 A2986 RMK A01 T01800023  RH  035%=      5-min Rain = 0
KONS 180020Z 17009KT 18/02 A2986 RMK A01 T01790023  RH  036%=      5-min Rain = 0
KONS 180025Z 17009KT 18/03 A2986 RMK A01 T01750026  RH  037%=      5-min Rain = 0
KONS 180030Z 16009KT 17/03 A2986 RMK A01 T01690028  RH  039%=      5-min Rain = 0
KONS 180035Z 17009KT 16/03 A2985 RMK A01 T01630027  RH  041%=      5-min Rain = 0
KONS 180040Z 16009KT 16/03 A2985 RMK A01 T01610026  RH  041%=      5-min Rain = 0
KONS 180045Z 16010KT 16/03 A2986 RMK A01 T01600027  RH  041%=      5-min Rain = 0
KONS 180050Z 16010KT 16/03 A2985 RMK A01 T01550031  RH  044%=      5-min Rain = 0
KONS 180055Z 15011KT 15/03 A2985 RMK A01 T01540033  RH  045%=      5-min Rain = 0
KONS 180100Z 15010KT 16/04 A2985 RMK A01 T01590038  RH  045%=      5-min Rain = 0
KONS 180105Z 15011KT 16/04 A2985 RMK A01 T01610038  RH  044%=      5-min Rain = 0
KONS 180110Z 15010KT 16/04 A2985 RMK A01 T01640040  RH  044%=      5-min Rain = 0
KONS 180115Z 16010KT 17/04 A2985 RMK A01 T01680041  RH  043%=      5-min Rain = 0
KONS 180120Z 16010KT 17/04 A2985 RMK A01 T01680042  RH  044%=      5-min Rain = 0
KONS 180125Z 17010KT 17/04 A2986 RMK A01 T01650044  RH  045%=      5-min Rain = 0
KONS 180130Z 17010KT 17/04 A2986 RMK A01 T01670042  RH  044%=      5-min Rain = 0
KONS 180135Z 17009KT 17/04 A2986 RMK A01 T01670041  RH  044%=      5-min Rain = 0
KONS 180140Z 18010KT 16/04 A2986 RMK A01 T01610043  RH  046%=      5-min Rain = 0
KONS 180145Z 17010KT 15/05 A2986 RMK A01 T01530045  RH  049%=      5-min Rain = 0
KONS 180150Z 17010KT 15/05 A2986 RMK A01 T01490045  RH  050%=      5-min Rain = 0
KONS 180155Z 17010KT 15/04 A2986 RMK A01 T01460044  RH  051%=      5-min Rain = 0
KONS 180200Z 17009KT 14/04 A2987 RMK A01 T01430044  RH  052%=      5-min Rain = 0
KONS 180205Z 17008KT 14/04 A2987 RMK A01 T01390044  RH  053%=      5-min Rain = 0
KONS 180210Z 18008KT 13/05 A2987 RMK A01 T01340045  RH  055%=      5-min Rain = 0
KONS 180215Z 17009KT 14/04 A2987 RMK A01 T01360043  RH  054%=      5-min Rain = 0
KONS 180220Z 17009KT 15/04 A2987 RMK A01 T01460042  RH  050%=      5-min Rain = 0
KONS 180225Z 17009KT 15/04 A2987 RMK A01 T01490041  RH  049%=      5-min Rain = 0
KONS 180230Z 17010KT 15/04 A2987 RMK A01 T01460040  RH  050%=      5-min Rain = 0
KONS 180235Z 17010KT 14/04 A2987 RMK A01 T01430041  RH  051%=      5-min Rain = 0
KONS 180240Z 17009KT 14/04 A2987 RMK A01 T01410043  RH  052%=      5-min Rain = 0
KONS 180245Z 17009KT 14/04 A2987 RMK A01 T01380042  RH  053%=      5-min Rain = 0
KONS 180250Z 17010KT 14/04 A2987 RMK A01 T01350041  RH  054%=      5-min Rain = 0
KONS 180255Z 17010KT 14/04 A2987 RMK A01 T01360041  RH  053%=      5-min Rain = 0
KONS 180300Z 17010KT 14/04 A2987 RMK A01 T01360042  RH  054%=      5-min Rain = 0
KONS 180305Z 17010KT 14/04 A2987 RMK A01 T01370042  RH  053%=      5-min Rain = 0
KONS 180310Z 17010KT 14/04 A2987 RMK A01 T01370043  RH  054%=      5-min Rain = 0
KONS 180315Z 17010KT 14/05 A2987 RMK A01 T01360045  RH  055%=      5-min Rain = 0
KONS 180320Z 17010KT 14/05 A2987 RMK A01 T01360047  RH  055%=      5-min Rain = 0
KONS 180325Z 17009KT 14/05 A2987 RMK A01 T01360048  RH  056%=      5-min Rain = 0
KONS 180330Z 17009KT 14/05 A2987 RMK A01 T01350048  RH  056%=      5-min Rain = 0
KONS 180335Z 17009KT 13/05 A2987 RMK A01 T01330049  RH  057%=      5-min Rain = 0
KONS 180340Z 17010KT 13/05 A2987 RMK A01 T01330049  RH  057%=      5-min Rain = 0
KONS 180345Z 17009KT 13/05 A2987 RMK A01 T01330050  RH  058%=      5-min Rain = 0
KONS 180350Z 17010KT 13/05 A2987 RMK A01 T01310051  RH  059%=      5-min Rain = 0
KONS 180355Z 17010KT 13/05 A2987 RMK A01 T01330050  RH  058%=      5-min Rain = 0
KONS 180400Z 18010KT 13/05 A2987 RMK A01 T01320051  RH  059%=      5-min Rain = 0
KONS 180405Z 17011KT 13/05 A2987 RMK A01 T01260051  RH  061%=      5-min Rain = 0
KONS 180410Z 18011KT 12/05 A2987 RMK A01 T01240052  RH  062%=      5-min Rain = 0
KONS 180415Z 18011KT 12/05 A2987 RMK A01 T01230053  RH  063%=      5-min Rain = 0
KONS 180420Z 18011KT 12/05 A2987 RMK A01 T01220053  RH  063%=      5-min Rain = 0
KONS 180425Z 17011KT 13/05 A2987 RMK A01 T01270053  RH  062%=      5-min Rain = 0
KONS 180430Z 16009KT 13/05 A2987 RMK A01 T01300053  RH  060%=      5-min Rain = 0
KONS 180435Z 16009KT 13/05 A2987 RMK A01 T01250054  RH  063%=      5-min Rain = 0
KONS 180440Z 17009KT 12/06 A2987 RMK A01 T01240055  RH  063%=      5-min Rain = 0
KONS 180445Z 17009KT 13/06 A2987 RMK A01 T01270055  RH  062%=      5-min Rain = 0
KONS 180450Z 17009KT 13/06 A2987 RMK A01 T01250056  RH  063%=      5-min Rain = 0
KONS 180455Z 17008KT 12/06 A2987 RMK A01 T01210056  RH  065%=      5-min Rain = 0

Page generated in 0.0158 seconds.